sensor_id;sensor_type;location;lat;lon;timestamp;temperature;humidity
25871;DHT22;13689;48.590;7.752;2023-05-01T00:00:50;15.50;58.10
25871;DHT22;13689;48.590;7.752;2023-05-01T00:03:17;15.50;58.10
25871;DHT22;13689;48.590;7.752;2023-05-01T00:05:45;15.40;58.10
25871;DHT22;13689;48.590;7.752;2023-05-01T00:08:12;15.40;58.20
25871;DHT22;13689;48.590;7.752;2023-05-01T00:10:38;15.40;58.20
25871;DHT22;13689;48.590;7.752;2023-05-01T00:13:04;15.40;58.20
25871;DHT22;13689;48.590;7.752;2023-05-01T00:15:30;15.40;58.30
25871;DHT22;13689;48.590;7.752;2023-05-01T00:17:57;15.40;58.30
25871;DHT22;13689;48.590;7.752;2023-05-01T00:20:27;15.30;58.40
25871;DHT22;13689;48.590;7.752;2023-05-01T00:22:52;15.30;58.40
25871;DHT22;13689;48.590;7.752;2023-05-01T00:25:18;15.30;58.50
25871;DHT22;13689;48.590;7.752;2023-05-01T00:27:43;15.30;58.60
25871;DHT22;13689;48.590;7.752;2023-05-01T00:30:10;15.20;58.60
25871;DHT22;13689;48.590;7.752;2023-05-01T00:32:36;15.30;58.70
25871;DHT22;13689;48.590;7.752;2023-05-01T00:35:03;15.30;58.70
25871;DHT22;13689;48.590;7.752;2023-05-01T00:37:28;15.20;58.70
25871;DHT22;13689;48.590;7.752;2023-05-01T00:39:54;15.30;58.80
25871;DHT22;13689;48.590;7.752;2023-05-01T00:42:20;15.30;58.80
25871;DHT22;13689;48.590;7.752;2023-05-01T00:44:45;15.30;58.80
25871;DHT22;13689;48.590;7.752;2023-05-01T00:47:11;15.30;58.80
25871;DHT22;13689;48.590;7.752;2023-05-01T00:49:37;15.30;58.90
25871;DHT22;13689;48.590;7.752;2023-05-01T00:52:03;15.30;58.90
25871;DHT22;13689;48.590;7.752;2023-05-01T00:54:29;15.20;59.00
25871;DHT22;13689;48.590;7.752;2023-05-01T00:56:55;15.20;59.00
25871;DHT22;13689;48.590;7.752;2023-05-01T00:59:20;15.20;59.00
25871;DHT22;13689;48.590;7.752;2023-05-01T01:01:49;15.20;59.10
25871;DHT22;13689;48.590;7.752;2023-05-01T01:04:15;15.20;59.10
25871;DHT22;13689;48.590;7.752;2023-05-01T01:06:55;15.10;59.20
25871;DHT22;13689;48.590;7.752;2023-05-01T01:09:37;15.10;59.30
25871;DHT22;13689;48.590;7.752;2023-05-01T01:15:17;15.10;59.30
25871;DHT22;13689;48.590;7.752;2023-05-01T01:20:21;15.10;59.40
25871;DHT22;13689;48.590;7.752;2023-05-01T01:26:02;15.00;59.50
25871;DHT22;13689;48.590;7.752;2023-05-01T01:31:32;15.00;59.60
25871;DHT22;13689;48.590;7.752;2023-05-01T01:34:14;15.00;59.60
25871;DHT22;13689;48.590;7.752;2023-05-01T01:39:56;15.00;59.70
25871;DHT22;13689;48.590;7.752;2023-05-01T01:42:31;15.00;59.90
25871;DHT22;13689;48.590;7.752;2023-05-01T01:45:02;15.00;59.90
25871;DHT22;13689;48.590;7.752;2023-05-01T01:47:41;14.90;60.80
25871;DHT22;13689;48.590;7.752;2023-05-01T01:50:09;14.90;60.20
25871;DHT22;13689;48.590;7.752;2023-05-01T01:52:47;14.90;60.40
25871;DHT22;13689;48.590;7.752;2023-05-01T01:55:21;14.90;60.50
25871;DHT22;13689;48.590;7.752;2023-05-01T01:57:49;14.90;60.70
25871;DHT22;13689;48.590;7.752;2023-05-01T02:00:17;14.80;60.80
25871;DHT22;13689;48.590;7.752;2023-05-01T02:02:43;14.80;60.90
25871;DHT22;13689;48.590;7.752;2023-05-01T02:05:14;14.80;61.00
25871;DHT22;13689;48.590;7.752;2023-05-01T02:07:41;14.80;61.10
25871;DHT22;13689;48.590;7.752;2023-05-01T02:10:08;14.80;61.10
25871;DHT22;13689;48.590;7.752;2023-05-01T02:12:36;14.80;61.30
25871;DHT22;13689;48.590;7.752;2023-05-01T02:15:05;14.70;61.30
25871;DHT22;13689;48.590;7.752;2023-05-01T02:17:32;14.70;61.40
25871;DHT22;13689;48.590;7.752;2023-05-01T02:19:59;14.70;61.50
25871;DHT22;13689;48.590;7.752;2023-05-01T02:22:26;14.70;61.50
25871;DHT22;13689;48.590;7.752;2023-05-01T02:24:53;14.70;61.60
25871;DHT22;13689;48.590;7.752;2023-05-01T02:27:25;14.70;61.60
25871;DHT22;13689;48.590;7.752;2023-05-01T02:29:52;14.70;61.70
25871;DHT22;13689;48.590;7.752;2023-05-01T02:32:18;14.70;61.70
25871;DHT22;13689;48.590;7.752;2023-05-01T02:34:44;14.70;61.80
25871;DHT22;13689;48.590;7.752;2023-05-01T02:37:10;14.70;61.80
25871;DHT22;13689;48.590;7.752;2023-05-01T02:39:36;14.70;61.90
25871;DHT22;13689;48.590;7.752;2023-05-01T02:42:03;14.70;62.00
25871;DHT22;13689;48.590;7.752;2023-05-01T02:44:37;14.70;62.00
25871;DHT22;13689;48.590;7.752;2023-05-01T02:47:05;14.70;62.00
25871;DHT22;13689;48.590;7.752;2023-05-01T02:49:32;14.60;62.00
25871;DHT22;13689;48.590;7.752;2023-05-01T02:51:58;14.60;62.00
25871;DHT22;13689;48.590;7.752;2023-05-01T02:54:25;14.60;62.00
25871;DHT22;13689;48.590;7.752;2023-05-01T02:56:51;14.60;62.00
25871;DHT22;13689;48.590;7.752;2023-05-01T02:59:17;14.60;62.20
25871;DHT22;13689;48.590;7.752;2023-05-01T03:01:42;14.60;62.30
25871;DHT22;13689;48.590;7.752;2023-05-01T03:04:08;14.60;62.30
25871;DHT22;13689;48.590;7.752;2023-05-01T03:06:34;14.60;62.40
25871;DHT22;13689;48.590;7.752;2023-05-01T03:08:59;14.50;62.50
25871;DHT22;13689;48.590;7.752;2023-05-01T03:11:25;14.50;62.50
25871;DHT22;13689;48.590;7.752;2023-05-01T03:13:51;14.50;62.50
25871;DHT22;13689;48.590;7.752;2023-05-01T03:16:16;14.50;62.60
25871;DHT22;13689;48.590;7.752;2023-05-01T03:18:42;14.50;62.60
25871;DHT22;13689;48.590;7.752;2023-05-01T03:21:08;14.50;62.70
25871;DHT22;13689;48.590;7.752;2023-05-01T03:23:34;14.50;62.80
25871;DHT22;13689;48.590;7.752;2023-05-01T03:26:00;14.50;62.80
25871;DHT22;13689;48.590;7.752;2023-05-01T03:28:26;14.50;62.90
25871;DHT22;13689;48.590;7.752;2023-05-01T03:31:01;14.50;62.90
25871;DHT22;13689;48.590;7.752;2023-05-01T03:33:27;14.40;63.00
25871;DHT22;13689;48.590;7.752;2023-05-01T03:36:03;14.40;63.00
25871;DHT22;13689;48.590;7.752;2023-05-01T03:38:30;14.40;63.10
25871;DHT22;13689;48.590;7.752;2023-05-01T03:40:56;14.30;63.20
25871;DHT22;13689;48.590;7.752;2023-05-01T03:43:23;14.30;63.40
25871;DHT22;13689;48.590;7.752;2023-05-01T03:45:49;14.40;63.50
25871;DHT22;13689;48.590;7.752;2023-05-01T03:48:15;14.40;63.50
25871;DHT22;13689;48.590;7.752;2023-05-01T03:50:41;14.40;63.50
25871;DHT22;13689;48.590;7.752;2023-05-01T03:53:07;14.40;63.50
25871;DHT22;13689;48.590;7.752;2023-05-01T03:55:33;14.40;63.40
25871;DHT22;13689;48.590;7.752;2023-05-01T03:57:59;14.50;63.40
25871;DHT22;13689;48.590;7.752;2023-05-01T04:00:25;14.50;63.40
25871;DHT22;13689;48.590;7.752;2023-05-01T04:02:51;14.50;63.30
25871;DHT22;13689;48.590;7.752;2023-05-01T04:05:17;14.40;63.40
25871;DHT22;13689;48.590;7.752;2023-05-01T04:07:43;14.40;63.50
25871;DHT22;13689;48.590;7.752;2023-05-01T04:10:09;14.50;63.50
25871;DHT22;13689;48.590;7.752;2023-05-01T04:12:35;14.40;63.40
25871;DHT22;13689;48.590;7.752;2023-05-01T04:15:01;14.30;63.50
25871;DHT22;13689;48.590;7.752;2023-05-01T04:17:27;14.10;63.90
25871;DHT22;13689;48.590;7.752;2023-05-01T04:19:53;14.00;64.40
25871;DHT22;13689;48.590;7.752;2023-05-01T04:22:20;14.00;64.50
25871;DHT22;13689;48.590;7.752;2023-05-01T04:24:46;14.00;64.80
25871;DHT22;13689;48.590;7.752;2023-05-01T04:27:12;14.00;64.80
25871;DHT22;13689;48.590;7.752;2023-05-01T04:29:37;14.10;64.60
25871;DHT22;13689;48.590;7.752;2023-05-01T04:32:03;14.20;64.50
25871;DHT22;13689;48.590;7.752;2023-05-01T04:34:29;14.10;64.30
25871;DHT22;13689;48.590;7.752;2023-05-01T04:36:55;14.10;64.50
25871;DHT22;13689;48.590;7.752;2023-05-01T04:39:23;14.00;64.80
25871;DHT22;13689;48.590;7.752;2023-05-01T04:41:49;14.00;65.00
25871;DHT22;13689;48.590;7.752;2023-05-01T04:44:15;13.90;65.00
25871;DHT22;13689;48.590;7.752;2023-05-01T04:46:40;13.90;65.40
25871;DHT22;13689;48.590;7.752;2023-05-01T04:49:06;13.80;66.50
25871;DHT22;13689;48.590;7.752;2023-05-01T04:51:32;13.70;65.80
25871;DHT22;13689;48.590;7.752;2023-05-01T04:53:58;13.70;66.00
25871;DHT22;13689;48.590;7.752;2023-05-01T04:56:24;13.80;65.90
25871;DHT22;13689;48.590;7.752;2023-05-01T04:58:50;13.70;65.90
25871;DHT22;13689;48.590;7.752;2023-05-01T05:01:16;13.70;66.10
25871;DHT22;13689;48.590;7.752;2023-05-01T05:03:42;13.80;66.30
25871;DHT22;13689;48.590;7.752;2023-05-01T05:06:07;13.90;66.10
25871;DHT22;13689;48.590;7.752;2023-05-01T05:08:33;13.90;65.80
25871;DHT22;13689;48.590;7.752;2023-05-01T05:10:59;13.90;65.60
25871;DHT22;13689;48.590;7.752;2023-05-01T05:13:25;13.90;65.70
25871;DHT22;13689;48.590;7.752;2023-05-01T05:15:51;13.80;65.80
25871;DHT22;13689;48.590;7.752;2023-05-01T05:18:17;13.90;66.40
25871;DHT22;13689;48.590;7.752;2023-05-01T05:20:43;13.90;67.00
25871;DHT22;13689;48.590;7.752;2023-05-01T05:23:08;13.90;67.40
25871;DHT22;13689;48.590;7.752;2023-05-01T05:25:34;13.90;67.80
25871;DHT22;13689;48.590;7.752;2023-05-01T05:28:01;13.80;68.30
25871;DHT22;13689;48.590;7.752;2023-05-01T05:30:26;13.70;69.10
25871;DHT22;13689;48.590;7.752;2023-05-01T05:32:52;13.60;69.80
25871;DHT22;13689;48.590;7.752;2023-05-01T05:35:18;13.60;70.40
25871;DHT22;13689;48.590;7.752;2023-05-01T05:37:43;13.60;70.90
25871;DHT22;13689;48.590;7.752;2023-05-01T05:40:09;13.50;71.20
25871;DHT22;13689;48.590;7.752;2023-05-01T05:42:35;13.50;71.60
25871;DHT22;13689;48.590;7.752;2023-05-01T05:45:01;13.40;71.80
25871;DHT22;13689;48.590;7.752;2023-05-01T05:47:27;13.40;72.60
25871;DHT22;13689;48.590;7.752;2023-05-01T05:49:52;13.40;72.90
25871;DHT22;13689;48.590;7.752;2023-05-01T05:52:20;13.40;73.10
25871;DHT22;13689;48.590;7.752;2023-05-01T05:54:45;13.50;73.30
25871;DHT22;13689;48.590;7.752;2023-05-01T05:57:11;13.50;72.80
25871;DHT22;13689;48.590;7.752;2023-05-01T05:59:37;13.50;72.80
25871;DHT22;13689;48.590;7.752;2023-05-01T06:02:03;13.50;72.70
25871;DHT22;13689;48.590;7.752;2023-05-01T06:04:28;13.60;72.70
25871;DHT22;13689;48.590;7.752;2023-05-01T06:06:54;13.70;72.70
25871;DHT22;13689;48.590;7.752;2023-05-01T06:09:20;13.80;72.50
25871;DHT22;13689;48.590;7.752;2023-05-01T06:11:46;13.90;72.10
25871;DHT22;13689;48.590;7.752;2023-05-01T06:14:13;14.00;72.00
25871;DHT22;13689;48.590;7.752;2023-05-01T06:16:39;14.00;71.60
25871;DHT22;13689;48.590;7.752;2023-05-01T06:19:04;14.10;71.60
25871;DHT22;13689;48.590;7.752;2023-05-01T06:21:30;14.10;71.60
25871;DHT22;13689;48.590;7.752;2023-05-01T06:23:58;14.10;71.50
25871;DHT22;13689;48.590;7.752;2023-05-01T06:26:24;14.10;71.50
25871;DHT22;13689;48.590;7.752;2023-05-01T06:28:50;14.20;71.60
25871;DHT22;13689;48.590;7.752;2023-05-01T06:31:16;14.20;71.60
25871;DHT22;13689;48.590;7.752;2023-05-01T06:33:41;14.30;71.70
25871;DHT22;13689;48.590;7.752;2023-05-01T06:36:07;14.40;71.70
25871;DHT22;13689;48.590;7.752;2023-05-01T06:38:32;14.50;71.80
25871;DHT22;13689;48.590;7.752;2023-05-01T06:40:58;14.50;71.70
25871;DHT22;13689;48.590;7.752;2023-05-01T06:43:24;14.50;71.70
25871;DHT22;13689;48.590;7.752;2023-05-01T06:45:58;14.50;71.70
25871;DHT22;13689;48.590;7.752;2023-05-01T06:48:23;14.50;72.60
25871;DHT22;13689;48.590;7.752;2023-05-01T06:50:49;14.50;71.80
25871;DHT22;13689;48.590;7.752;2023-05-01T06:53:15;14.60;71.80
25871;DHT22;13689;48.590;7.752;2023-05-01T06:55:43;14.60;71.70
25871;DHT22;13689;48.590;7.752;2023-05-01T06:58:12;14.70;71.70
25871;DHT22;13689;48.590;7.752;2023-05-01T07:00:37;14.70;71.70
25871;DHT22;13689;48.590;7.752;2023-05-01T07:03:03;14.80;71.80
25871;DHT22;13689;48.590;7.752;2023-05-01T07:05:29;14.80;72.00
25871;DHT22;13689;48.590;7.752;2023-05-01T07:07:55;15.00;72.00
25871;DHT22;13689;48.590;7.752;2023-05-01T07:10:20;15.10;71.90
25871;DHT22;13689;48.590;7.752;2023-05-01T07:12:46;15.20;71.90
25871;DHT22;13689;48.590;7.752;2023-05-01T07:15:12;15.20;71.70
25871;DHT22;13689;48.590;7.752;2023-05-01T07:17:40;15.30;71.60
25871;DHT22;13689;48.590;7.752;2023-05-01T07:20:06;15.40;71.40
25871;DHT22;13689;48.590;7.752;2023-05-01T07:22:32;15.60;71.30
25871;DHT22;13689;48.590;7.752;2023-05-01T07:24:57;15.60;71.20
25871;DHT22;13689;48.590;7.752;2023-05-01T07:27:25;15.70;71.00
25871;DHT22;13689;48.590;7.752;2023-05-01T07:29:52;15.70;71.70
25871;DHT22;13689;48.590;7.752;2023-05-01T07:32:17;15.70;70.80
25871;DHT22;13689;48.590;7.752;2023-05-01T07:34:43;15.80;70.70
25871;DHT22;13689;48.590;7.752;2023-05-01T07:37:09;15.80;70.90
25871;DHT22;13689;48.590;7.752;2023-05-01T07:39:34;15.90;70.80
25871;DHT22;13689;48.590;7.752;2023-05-01T07:42:00;16.00;70.90
25871;DHT22;13689;48.590;7.752;2023-05-01T07:44:26;16.10;70.60
25871;DHT22;13689;48.590;7.752;2023-05-01T07:46:51;16.40;70.50
25871;DHT22;13689;48.590;7.752;2023-05-01T07:49:17;16.60;70.10
25871;DHT22;13689;48.590;7.752;2023-05-01T07:51:43;16.80;69.80
25871;DHT22;13689;48.590;7.752;2023-05-01T07:54:09;16.80;69.40
25871;DHT22;13689;48.590;7.752;2023-05-01T07:56:35;16.80;69.40
25871;DHT22;13689;48.590;7.752;2023-05-01T07:59:00;16.90;69.20
25871;DHT22;13689;48.590;7.752;2023-05-01T08:01:26;16.90;68.80
25871;DHT22;13689;48.590;7.752;2023-05-01T08:03:52;16.90;68.30
25871;DHT22;13689;48.590;7.752;2023-05-01T08:06:17;16.90;68.50
25871;DHT22;13689;48.590;7.752;2023-05-01T08:08:43;17.10;68.40
25871;DHT22;13689;48.590;7.752;2023-05-01T08:11:08;17.20;67.80
25871;DHT22;13689;48.590;7.752;2023-05-01T08:13:34;17.30;67.30
25871;DHT22;13689;48.590;7.752;2023-05-01T08:16:01;17.50;66.90
25871;DHT22;13689;48.590;7.752;2023-05-01T08:18:27;17.60;66.50
25871;DHT22;13689;48.590;7.752;2023-05-01T08:20:53;17.80;65.90
25871;DHT22;13689;48.590;7.752;2023-05-01T08:23:18;18.20;65.60
25871;DHT22;13689;48.590;7.752;2023-05-01T08:25:44;18.80;64.90
25871;DHT22;13689;48.590;7.752;2023-05-01T08:28:13;19.40;63.90
25871;DHT22;13689;48.590;7.752;2023-05-01T08:30:38;19.90;62.90
25871;DHT22;13689;48.590;7.752;2023-05-01T08:33:04;20.40;61.60
25871;DHT22;13689;48.590;7.752;2023-05-01T08:35:30;20.90;60.50
25871;DHT22;13689;48.590;7.752;2023-05-01T08:37:56;21.30;59.30
25871;DHT22;13689;48.590;7.752;2023-05-01T08:40:23;21.80;58.30
25871;DHT22;13689;48.590;7.752;2023-05-01T08:42:50;22.30;57.10
25871;DHT22;13689;48.590;7.752;2023-05-01T08:45:18;22.70;55.70
25871;DHT22;13689;48.590;7.752;2023-05-01T08:47:46;23.20;54.70
25871;DHT22;13689;48.590;7.752;2023-05-01T08:50:13;23.60;53.60
25871;DHT22;13689;48.590;7.752;2023-05-01T08:52:40;23.90;52.50
25871;DHT22;13689;48.590;7.752;2023-05-01T08:55:11;24.00;51.80
25871;DHT22;13689;48.590;7.752;2023-05-01T08:57:38;24.40;51.10
25871;DHT22;13689;48.590;7.752;2023-05-01T09:00:09;24.90;50.20
25871;DHT22;13689;48.590;7.752;2023-05-01T09:02:38;25.20;49.10
25871;DHT22;13689;48.590;7.752;2023-05-01T09:05:06;25.30;48.20
25871;DHT22;13689;48.590;7.752;2023-05-01T09:07:32;25.20;48.40
25871;DHT22;13689;48.590;7.752;2023-05-01T09:09:58;25.00;47.90
25871;DHT22;13689;48.590;7.752;2023-05-01T09:12:25;23.80;49.00
25871;DHT22;13689;48.590;7.752;2023-05-01T09:14:55;22.90;50.20
25871;DHT22;13689;48.590;7.752;2023-05-01T09:17:22;22.10;51.40
25871;DHT22;13689;48.590;7.752;2023-05-01T09:19:49;21.70;52.20
25871;DHT22;13689;48.590;7.752;2023-05-01T09:22:17;21.50;52.70
25871;DHT22;13689;48.590;7.752;2023-05-01T09:24:43;22.80;51.90
25871;DHT22;13689;48.590;7.752;2023-05-01T09:27:11;23.90;50.40
25871;DHT22;13689;48.590;7.752;2023-05-01T09:29:38;24.40;49.30
25871;DHT22;13689;48.590;7.752;2023-05-01T09:32:23;24.50;48.90
25871;DHT22;13689;48.590;7.752;2023-05-01T09:34:51;24.80;48.80
25871;DHT22;13689;48.590;7.752;2023-05-01T09:40:12;25.50;47.30
25871;DHT22;13689;48.590;7.752;2023-05-01T09:42:49;25.90;46.60
25871;DHT22;13689;48.590;7.752;2023-05-01T09:45:15;26.40;46.10
25871;DHT22;13689;48.590;7.752;2023-05-01T09:47:41;26.10;46.10
25871;DHT22;13689;48.590;7.752;2023-05-01T09:50:08;25.40;46.60
25871;DHT22;13689;48.590;7.752;2023-05-01T09:52:34;24.50;47.50
25871;DHT22;13689;48.590;7.752;2023-05-01T09:55:16;24.30;48.10
25871;DHT22;13689;48.590;7.752;2023-05-01T09:57:44;24.80;48.80
25871;DHT22;13689;48.590;7.752;2023-05-01T10:00:12;25.40;47.70
25871;DHT22;13689;48.590;7.752;2023-05-01T10:02:39;25.70;46.90
25871;DHT22;13689;48.590;7.752;2023-05-01T10:05:06;25.90;46.60
25871;DHT22;13689;48.590;7.752;2023-05-01T10:07:32;26.30;46.10
25871;DHT22;13689;48.590;7.752;2023-05-01T10:10:14;26.70;45.60
25871;DHT22;13689;48.590;7.752;2023-05-01T10:12:39;26.70;44.90
25871;DHT22;13689;48.590;7.752;2023-05-01T10:15:06;25.70;45.10
25871;DHT22;13689;48.590;7.752;2023-05-01T10:17:33;25.60;45.70
25871;DHT22;13689;48.590;7.752;2023-05-01T10:19:59;26.20;45.20
25871;DHT22;13689;48.590;7.752;2023-05-01T10:22:24;26.70;44.60
25871;DHT22;13689;48.590;7.752;2023-05-01T10:24:51;27.10;44.00
25871;DHT22;13689;48.590;7.752;2023-05-01T10:27:17;27.10;43.60
25871;DHT22;13689;48.590;7.752;2023-05-01T10:29:44;26.50;43.40
25871;DHT22;13689;48.590;7.752;2023-05-01T10:32:11;25.80;44.00
25871;DHT22;13689;48.590;7.752;2023-05-01T10:34:42;25.30;44.80
25871;DHT22;13689;48.590;7.752;2023-05-01T10:37:21;25.30;45.20
25871;DHT22;13689;48.590;7.752;2023-05-01T10:39:49;26.40;44.60
25871;DHT22;13689;48.590;7.752;2023-05-01T10:42:14;27.40;43.30
25871;DHT22;13689;48.590;7.752;2023-05-01T10:44:41;27.60;41.70
25871;DHT22;13689;48.590;7.752;2023-05-01T10:50:09;25.60;43.10
25871;DHT22;13689;48.590;7.752;2023-05-01T10:55:35;24.50;44.70
25871;DHT22;13689;48.590;7.752;2023-05-01T10:58:01;23.90;45.30
25871;DHT22;13689;48.590;7.752;2023-05-01T11:00:28;23.40;46.60
25871;DHT22;13689;48.590;7.752;2023-05-01T11:08:31;22.50;48.00
25871;DHT22;13689;48.590;7.752;2023-05-01T11:14:03;21.90;49.10
25871;DHT22;13689;48.590;7.752;2023-05-01T11:21:37;20.40;57.30
25871;DHT22;13689;48.590;7.752;2023-05-01T11:24:08;19.90;59.90
25871;DHT22;13689;48.590;7.752;2023-05-01T11:26:38;19.40;63.50
25871;DHT22;13689;48.590;7.752;2023-05-01T11:29:05;18.90;66.90
25871;DHT22;13689;48.590;7.752;2023-05-01T11:31:31;18.60;69.10
25871;DHT22;13689;48.590;7.752;2023-05-01T11:33:58;18.30;71.10
25871;DHT22;13689;48.590;7.752;2023-05-01T11:36:24;18.10;72.50
25871;DHT22;13689;48.590;7.752;2023-05-01T11:38:57;18.00;73.70
25871;DHT22;13689;48.590;7.752;2023-05-01T11:41:25;17.90;74.50
25871;DHT22;13689;48.590;7.752;2023-05-01T11:43:52;17.80;75.00
25871;DHT22;13689;48.590;7.752;2023-05-01T11:46:31;17.60;75.50
25871;DHT22;13689;48.590;7.752;2023-05-01T11:48:59;17.50;75.90
25871;DHT22;13689;48.590;7.752;2023-05-01T11:51:29;17.20;76.30
25871;DHT22;13689;48.590;7.752;2023-05-01T11:54:01;17.10;76.90
25871;DHT22;13689;48.590;7.752;2023-05-01T11:56:28;17.00;77.80
25871;DHT22;13689;48.590;7.752;2023-05-01T11:58:55;16.90;78.40
25871;DHT22;13689;48.590;7.752;2023-05-01T12:01:35;16.80;78.10
25871;DHT22;13689;48.590;7.752;2023-05-01T12:04:02;16.60;77.70
25871;DHT22;13689;48.590;7.752;2023-05-01T12:06:38;16.60;79.00
25871;DHT22;13689;48.590;7.752;2023-05-01T12:09:29;16.90;79.30
25871;DHT22;13689;48.590;7.752;2023-05-01T12:11:54;17.20;79.30
25871;DHT22;13689;48.590;7.752;2023-05-01T12:14:20;17.70;79.30
25871;DHT22;13689;48.590;7.752;2023-05-01T12:16:46;18.10;78.90
25871;DHT22;13689;48.590;7.752;2023-05-01T12:19:13;18.50;79.00
25871;DHT22;13689;48.590;7.752;2023-05-01T12:21:40;18.80;79.40
25871;DHT22;13689;48.590;7.752;2023-05-01T12:24:12;19.10;79.70
25871;DHT22;13689;48.590;7.752;2023-05-01T12:26:45;19.30;79.80
25871;DHT22;13689;48.590;7.752;2023-05-01T12:29:11;19.30;79.70
25871;DHT22;13689;48.590;7.752;2023-05-01T12:31:45;19.30;79.50
25871;DHT22;13689;48.590;7.752;2023-05-01T12:34:11;19.30;80.30
25871;DHT22;13689;48.590;7.752;2023-05-01T12:36:37;19.20;80.00
25871;DHT22;13689;48.590;7.752;2023-05-01T12:39:05;19.10;78.90
25871;DHT22;13689;48.590;7.752;2023-05-01T12:41:51;18.80;78.50
25871;DHT22;13689;48.590;7.752;2023-05-01T12:47:00;18.70;76.80
25871;DHT22;13689;48.590;7.752;2023-05-01T12:49:27;18.70;76.20
25871;DHT22;13689;48.590;7.752;2023-05-01T12:51:56;18.70;75.40
25871;DHT22;13689;48.590;7.752;2023-05-01T12:54:22;18.70;74.10
25871;DHT22;13689;48.590;7.752;2023-05-01T12:56:51;18.70;74.70
25871;DHT22;13689;48.590;7.752;2023-05-01T13:01:46;18.70;70.30
25871;DHT22;13689;48.590;7.752;2023-05-01T13:04:18;18.80;69.60
25871;DHT22;13689;48.590;7.752;2023-05-01T13:06:44;18.80;67.00
25871;DHT22;13689;48.590;7.752;2023-05-01T13:09:09;18.90;66.60
25871;DHT22;13689;48.590;7.752;2023-05-01T13:11:36;18.80;63.60
25871;DHT22;13689;48.590;7.752;2023-05-01T13:14:06;18.80;63.80
25871;DHT22;13689;48.590;7.752;2023-05-01T13:16:44;18.90;64.10
25871;DHT22;13689;48.590;7.752;2023-05-01T13:19:10;19.00;62.60
25871;DHT22;13689;48.590;7.752;2023-05-01T13:21:45;18.90;61.70
25871;DHT22;13689;48.590;7.752;2023-05-01T13:24:12;18.90;62.00
25871;DHT22;13689;48.590;7.752;2023-05-01T13:26:38;18.80;60.70
25871;DHT22;13689;48.590;7.752;2023-05-01T13:29:04;18.80;60.70
25871;DHT22;13689;48.590;7.752;2023-05-01T13:31:30;19.00;60.90
25871;DHT22;13689;48.590;7.752;2023-05-01T13:33:59;19.10;60.30
25871;DHT22;13689;48.590;7.752;2023-05-01T13:36:27;19.20;59.60
25871;DHT22;13689;48.590;7.752;2023-05-01T13:38:56;19.40;59.70
25871;DHT22;13689;48.590;7.752;2023-05-01T13:41:23;19.50;59.70
25871;DHT22;13689;48.590;7.752;2023-05-01T13:43:54;19.50;59.70
25871;DHT22;13689;48.590;7.752;2023-05-01T13:46:20;19.40;59.30
25871;DHT22;13689;48.590;7.752;2023-05-01T13:48:47;19.40;59.50
25871;DHT22;13689;48.590;7.752;2023-05-01T13:51:14;19.30;59.50
25871;DHT22;13689;48.590;7.752;2023-05-01T13:53:44;19.30;59.60
25871;DHT22;13689;48.590;7.752;2023-05-01T13:56:10;19.40;59.40
25871;DHT22;13689;48.590;7.752;2023-05-01T13:58:40;19.40;59.10
25871;DHT22;13689;48.590;7.752;2023-05-01T14:01:14;19.50;59.10
25871;DHT22;13689;48.590;7.752;2023-05-01T14:03:42;19.60;59.30
25871;DHT22;13689;48.590;7.752;2023-05-01T14:06:12;19.80;58.90
25871;DHT22;13689;48.590;7.752;2023-05-01T14:08:38;19.70;58.60
25871;DHT22;13689;48.590;7.752;2023-05-01T14:11:07;19.80;58.90
25871;DHT22;13689;48.590;7.752;2023-05-01T14:13:41;19.80;58.90
25871;DHT22;13689;48.590;7.752;2023-05-01T14:16:07;19.80;58.10
25871;DHT22;13689;48.590;7.752;2023-05-01T14:18:44;19.60;57.90
25871;DHT22;13689;48.590;7.752;2023-05-01T14:21:11;19.60;57.80
25871;DHT22;13689;48.590;7.752;2023-05-01T14:23:38;19.70;57.60
25871;DHT22;13689;48.590;7.752;2023-05-01T14:26:04;19.60;57.60
25871;DHT22;13689;48.590;7.752;2023-05-01T14:28:32;19.50;57.50
25871;DHT22;13689;48.590;7.752;2023-05-01T14:30:58;19.50;57.70
25871;DHT22;13689;48.590;7.752;2023-05-01T14:33:24;19.60;57.90
25871;DHT22;13689;48.590;7.752;2023-05-01T14:35:52;19.60;58.00
25871;DHT22;13689;48.590;7.752;2023-05-01T14:38:19;19.60;58.60
25871;DHT22;13689;48.590;7.752;2023-05-01T14:40:46;19.60;58.10
25871;DHT22;13689;48.590;7.752;2023-05-01T14:43:14;19.70;58.30
25871;DHT22;13689;48.590;7.752;2023-05-01T14:45:41;19.60;58.30
25871;DHT22;13689;48.590;7.752;2023-05-01T14:48:07;19.60;58.50
25871;DHT22;13689;48.590;7.752;2023-05-01T14:50:35;19.50;58.40
25871;DHT22;13689;48.590;7.752;2023-05-01T14:53:03;19.50;58.60
25871;DHT22;13689;48.590;7.752;2023-05-01T14:55:30;19.60;58.60
25871;DHT22;13689;48.590;7.752;2023-05-01T14:57:59;19.70;58.50
25871;DHT22;13689;48.590;7.752;2023-05-01T15:00:26;19.70;57.90
25871;DHT22;13689;48.590;7.752;2023-05-01T15:02:53;19.70;57.70
25871;DHT22;13689;48.590;7.752;2023-05-01T15:05:19;19.70;57.40
25871;DHT22;13689;48.590;7.752;2023-05-01T15:07:45;19.70;57.20
25871;DHT22;13689;48.590;7.752;2023-05-01T15:10:11;19.70;57.00
25871;DHT22;13689;48.590;7.752;2023-05-01T15:12:37;19.70;57.00
25871;DHT22;13689;48.590;7.752;2023-05-01T15:15:04;19.70;56.90
25871;DHT22;13689;48.590;7.752;2023-05-01T15:17:29;19.70;56.90
25871;DHT22;13689;48.590;7.752;2023-05-01T15:19:55;19.70;57.00
25871;DHT22;13689;48.590;7.752;2023-05-01T15:22:22;19.60;56.90
25871;DHT22;13689;48.590;7.752;2023-05-01T15:24:48;19.60;56.80
25871;DHT22;13689;48.590;7.752;2023-05-01T15:27:13;19.60;56.80
25871;DHT22;13689;48.590;7.752;2023-05-01T15:29:39;19.60;56.70
25871;DHT22;13689;48.590;7.752;2023-05-01T15:32:04;19.70;56.60
25871;DHT22;13689;48.590;7.752;2023-05-01T15:34:31;19.80;56.40
25871;DHT22;13689;48.590;7.752;2023-05-01T15:36:57;19.90;56.20
25871;DHT22;13689;48.590;7.752;2023-05-01T15:39:23;20.10;56.00
25871;DHT22;13689;48.590;7.752;2023-05-01T15:41:49;20.20;55.70
25871;DHT22;13689;48.590;7.752;2023-05-01T15:44:14;20.30;55.30
25871;DHT22;13689;48.590;7.752;2023-05-01T15:46:41;20.40;54.80
25871;DHT22;13689;48.590;7.752;2023-05-01T15:49:08;20.50;54.40
25871;DHT22;13689;48.590;7.752;2023-05-01T15:51:34;20.40;53.80
25871;DHT22;13689;48.590;7.752;2023-05-01T15:54:00;20.30;53.30
25871;DHT22;13689;48.590;7.752;2023-05-01T15:56:27;20.30;52.80
25871;DHT22;13689;48.590;7.752;2023-05-01T15:58:53;20.30;52.70
25871;DHT22;13689;48.590;7.752;2023-05-01T16:01:18;20.20;52.50
25871;DHT22;13689;48.590;7.752;2023-05-01T16:03:46;20.20;52.30
25871;DHT22;13689;48.590;7.752;2023-05-01T16:06:15;20.10;52.10
25871;DHT22;13689;48.590;7.752;2023-05-01T16:08:41;20.00;51.90
25871;DHT22;13689;48.590;7.752;2023-05-01T16:11:10;20.00;51.70
25871;DHT22;13689;48.590;7.752;2023-05-01T16:13:38;20.00;51.40